Anniston Metropolitan Airport Anniston US
ICAO: KANB
IATA: ANB
Category: Medium
Scheduled Services: No

Elevation: 612 ft
TransAlt. 18000 ft.

Airport Communications:
BIRMINGHAM APP/DEP:125.45
ASOS:119.675
CTAF:123.6
RDO:122.2
UNICOM:123

KANB Zoom In..

Runways:

(A) RW 05 length 7000 ft width 150 ft
ILS 111.50 / hdg 49

(B) RW 23 length 7000 ft width 150 ft
---- / hdg 229

Location; KANB
Day. 23 / Time. 21.53 Zulu
* Altimeter: 30.07
* Temperature: 12° c. 53.6°f.
* Wind from: 270° Speed 12 kn.
Dewpoint: -01° c.
Visibility: 10 Statute Miles.
Clouds: Clear (automated report).

KANB 232153Z AUTO 27012KT 10SM CLR 12/M01 A3007 RMK AO2 SLP185 T01221006


Wind From 270°
Speed 12 kn.

YouTube Music Video
 
jpsmedia.com for Web Design  worldairports.se 2018   terms of use